sensor_id;sensor_type;location;lat;lon;timestamp;P1;durP1;ratioP1;P2;durP2;ratioP2
21639;SDS011;10981;45.462;10.974;2023-03-19T00:01:01;35.15;;;17.45;;
21639;SDS011;10981;45.462;10.974;2023-03-19T00:03:31;27.55;;;16.85;;
21639;SDS011;10981;45.462;10.974;2023-03-19T00:06:01;27.58;;;15.98;;
21639;SDS011;10981;45.462;10.974;2023-03-19T00:08:29;31.13;;;17.02;;
21639;SDS011;10981;45.462;10.974;2023-03-19T00:10:58;30.35;;;16.80;;
21639;SDS011;10981;45.462;10.974;2023-03-19T00:13:33;31.33;;;17.58;;
21639;SDS011;10981;45.462;10.974;2023-03-19T00:16:01;35.67;;;17.30;;
21639;SDS011;10981;45.462;10.974;2023-03-19T00:18:30;31.13;;;16.55;;
21639;SDS011;10981;45.462;10.974;2023-03-19T00:20:58;33.30;;;16.85;;
21639;SDS011;10981;45.462;10.974;2023-03-19T00:23:27;29.15;;;16.30;;
21639;SDS011;10981;45.462;10.974;2023-03-19T00:25:55;34.97;;;17.15;;
21639;SDS011;10981;45.462;10.974;2023-03-19T00:28:23;30.75;;;17.67;;
21639;SDS011;10981;45.462;10.974;2023-03-19T00:30:54;31.10;;;17.98;;
21639;SDS011;10981;45.462;10.974;2023-03-19T00:33:23;29.63;;;16.67;;
21639;SDS011;10981;45.462;10.974;2023-03-19T00:35:53;32.60;;;18.15;;
21639;SDS011;10981;45.462;10.974;2023-03-19T00:38:21;28.48;;;16.33;;
21639;SDS011;10981;45.462;10.974;2023-03-19T00:40:50;29.05;;;16.27;;
21639;SDS011;10981;45.462;10.974;2023-03-19T00:43:18;28.90;;;17.38;;
21639;SDS011;10981;45.462;10.974;2023-03-19T00:45:46;27.73;;;17.17;;
21639;SDS011;10981;45.462;10.974;2023-03-19T00:48:14;30.95;;;18.60;;
21639;SDS011;10981;45.462;10.974;2023-03-19T00:50:46;29.30;;;17.15;;
21639;SDS011;10981;45.462;10.974;2023-03-19T00:53:15;30.95;;;16.80;;
21639;SDS011;10981;45.462;10.974;2023-03-19T00:55:43;30.65;;;17.70;;
21639;SDS011;10981;45.462;10.974;2023-03-19T00:58:12;31.92;;;18.45;;
21639;SDS011;10981;45.462;10.974;2023-03-19T01:00:40;33.85;;;18.70;;
21639;SDS011;10981;45.462;10.974;2023-03-19T01:03:08;34.92;;;18.45;;
21639;SDS011;10981;45.462;10.974;2023-03-19T01:05:37;30.73;;;18.48;;
21639;SDS011;10981;45.462;10.974;2023-03-19T01:08:08;32.58;;;19.17;;
21639;SDS011;10981;45.462;10.974;2023-03-19T01:10:36;36.28;;;20.13;;
21639;SDS011;10981;45.462;10.974;2023-03-19T01:13:04;30.95;;;18.75;;
21639;SDS011;10981;45.462;10.974;2023-03-19T01:15:37;32.78;;;18.63;;
21639;SDS011;10981;45.462;10.974;2023-03-19T01:18:07;31.20;;;18.23;;
21639;SDS011;10981;45.462;10.974;2023-03-19T01:20:37;27.73;;;18.52;;
21639;SDS011;10981;45.462;10.974;2023-03-19T01:23:07;35.45;;;19.45;;
21639;SDS011;10981;45.462;10.974;2023-03-19T01:25:35;34.55;;;18.83;;
21639;SDS011;10981;45.462;10.974;2023-03-19T01:28:05;32.97;;;19.23;;
21639;SDS011;10981;45.462;10.974;2023-03-19T01:30:37;30.70;;;17.88;;
21639;SDS011;10981;45.462;10.974;2023-03-19T01:33:33;36.20;;;20.10;;
21639;SDS011;10981;45.462;10.974;2023-03-19T01:36:08;31.15;;;20.20;;
21639;SDS011;10981;45.462;10.974;2023-03-19T01:38:55;32.88;;;18.67;;
21639;SDS011;10981;45.462;10.974;2023-03-19T01:41:23;36.05;;;18.63;;
21639;SDS011;10981;45.462;10.974;2023-03-19T01:44:00;34.75;;;20.27;;
21639;SDS011;10981;45.462;10.974;2023-03-19T01:46:47;35.67;;;20.65;;
21639;SDS011;10981;45.462;10.974;2023-03-19T01:49:29;36.63;;;21.17;;
21639;SDS011;10981;45.462;10.974;2023-03-19T01:52:19;35.85;;;20.75;;
21639;SDS011;10981;45.462;10.974;2023-03-19T01:55:03;39.88;;;21.90;;
21639;SDS011;10981;45.462;10.974;2023-03-19T01:57:59;37.47;;;21.90;;
21639;SDS011;10981;45.462;10.974;2023-03-19T02:00:54;34.05;;;21.35;;
21639;SDS011;10981;45.462;10.974;2023-03-19T02:03:23;39.25;;;21.75;;
21639;SDS011;10981;45.462;10.974;2023-03-19T02:06:01;36.55;;;21.42;;
21639;SDS011;10981;45.462;10.974;2023-03-19T02:08:31;35.58;;;20.63;;
21639;SDS011;10981;45.462;10.974;2023-03-19T02:11:03;41.38;;;22.13;;
21639;SDS011;10981;45.462;10.974;2023-03-19T02:13:32;39.10;;;22.67;;
21639;SDS011;10981;45.462;10.974;2023-03-19T02:16:01;40.55;;;22.08;;
21639;SDS011;10981;45.462;10.974;2023-03-19T02:18:30;39.25;;;23.75;;
21639;SDS011;10981;45.462;10.974;2023-03-19T02:21:04;39.92;;;22.92;;
21639;SDS011;10981;45.462;10.974;2023-03-19T02:23:46;39.00;;;22.85;;
21639;SDS011;10981;45.462;10.974;2023-03-19T02:26:37;35.70;;;22.88;;
21639;SDS011;10981;45.462;10.974;2023-03-19T02:29:08;39.70;;;22.48;;
21639;SDS011;10981;45.462;10.974;2023-03-19T02:31:37;38.85;;;21.60;;
21639;SDS011;10981;45.462;10.974;2023-03-19T02:34:15;38.28;;;22.58;;
21639;SDS011;10981;45.462;10.974;2023-03-19T02:37:03;46.47;;;22.38;;
21639;SDS011;10981;45.462;10.974;2023-03-19T02:39:48;40.67;;;22.38;;
21639;SDS011;10981;45.462;10.974;2023-03-19T02:42:24;45.55;;;23.02;;
21639;SDS011;10981;45.462;10.974;2023-03-19T02:44:56;36.70;;;23.00;;
21639;SDS011;10981;45.462;10.974;2023-03-19T02:47:24;43.25;;;24.15;;
21639;SDS011;10981;45.462;10.974;2023-03-19T02:49:53;44.10;;;25.77;;
21639;SDS011;10981;45.462;10.974;2023-03-19T02:52:22;41.80;;;23.35;;
21639;SDS011;10981;45.462;10.974;2023-03-19T02:54:50;47.35;;;23.90;;
21639;SDS011;10981;45.462;10.974;2023-03-19T02:57:18;41.28;;;23.13;;
21639;SDS011;10981;45.462;10.974;2023-03-19T02:59:46;43.35;;;23.98;;
21639;SDS011;10981;45.462;10.974;2023-03-19T03:02:15;43.60;;;23.95;;
21639;SDS011;10981;45.462;10.974;2023-03-19T03:04:45;40.80;;;24.20;;
21639;SDS011;10981;45.462;10.974;2023-03-19T03:07:13;42.70;;;25.05;;
21639;SDS011;10981;45.462;10.974;2023-03-19T03:09:41;44.47;;;24.38;;
21639;SDS011;10981;45.462;10.974;2023-03-19T03:12:09;43.15;;;24.27;;
21639;SDS011;10981;45.462;10.974;2023-03-19T03:14:38;43.88;;;25.25;;
21639;SDS011;10981;45.462;10.974;2023-03-19T03:17:07;43.95;;;23.48;;
21639;SDS011;10981;45.462;10.974;2023-03-19T03:19:35;44.05;;;23.85;;
21639;SDS011;10981;45.462;10.974;2023-03-19T03:22:03;38.30;;;23.15;;
21639;SDS011;10981;45.462;10.974;2023-03-19T03:24:32;35.92;;;22.38;;
21639;SDS011;10981;45.462;10.974;2023-03-19T03:27:00;41.08;;;23.92;;
21639;SDS011;10981;45.462;10.974;2023-03-19T03:29:29;42.80;;;22.42;;
21639;SDS011;10981;45.462;10.974;2023-03-19T03:31:57;39.03;;;22.45;;
21639;SDS011;10981;45.462;10.974;2023-03-19T03:34:26;41.05;;;23.55;;
21639;SDS011;10981;45.462;10.974;2023-03-19T03:36:55;43.45;;;22.92;;
21639;SDS011;10981;45.462;10.974;2023-03-19T03:39:24;39.33;;;22.17;;
21639;SDS011;10981;45.462;10.974;2023-03-19T03:41:52;41.67;;;22.25;;
21639;SDS011;10981;45.462;10.974;2023-03-19T03:44:21;37.80;;;22.98;;
21639;SDS011;10981;45.462;10.974;2023-03-19T03:46:49;41.85;;;23.05;;
21639;SDS011;10981;45.462;10.974;2023-03-19T03:49:21;43.70;;;24.75;;
21639;SDS011;10981;45.462;10.974;2023-03-19T03:51:49;39.28;;;22.40;;
21639;SDS011;10981;45.462;10.974;2023-03-19T03:54:17;41.13;;;23.23;;
21639;SDS011;10981;45.462;10.974;2023-03-19T03:56:45;38.63;;;21.80;;
21639;SDS011;10981;45.462;10.974;2023-03-19T03:59:16;41.65;;;22.02;;
21639;SDS011;10981;45.462;10.974;2023-03-19T04:01:47;39.33;;;22.83;;
21639;SDS011;10981;45.462;10.974;2023-03-19T04:04:17;38.30;;;23.17;;
21639;SDS011;10981;45.462;10.974;2023-03-19T04:06:46;38.42;;;22.58;;
21639;SDS011;10981;45.462;10.974;2023-03-19T04:09:27;35.88;;;21.98;;
21639;SDS011;10981;45.462;10.974;2023-03-19T04:11:55;38.67;;;22.85;;
21639;SDS011;10981;45.462;10.974;2023-03-19T04:14:23;39.85;;;21.95;;
21639;SDS011;10981;45.462;10.974;2023-03-19T04:16:52;36.30;;;21.85;;
21639;SDS011;10981;45.462;10.974;2023-03-19T04:19:21;44.15;;;23.08;;
21639;SDS011;10981;45.462;10.974;2023-03-19T04:21:50;40.10;;;22.27;;
21639;SDS011;10981;45.462;10.974;2023-03-19T04:24:18;39.47;;;24.00;;
21639;SDS011;10981;45.462;10.974;2023-03-19T04:26:46;36.05;;;21.88;;
21639;SDS011;10981;45.462;10.974;2023-03-19T04:29:16;39.88;;;24.23;;
21639;SDS011;10981;45.462;10.974;2023-03-19T04:31:45;36.40;;;21.83;;
21639;SDS011;10981;45.462;10.974;2023-03-19T04:34:13;31.05;;;19.42;;
21639;SDS011;10981;45.462;10.974;2023-03-19T04:36:41;29.17;;;17.90;;
21639;SDS011;10981;45.462;10.974;2023-03-19T04:39:10;31.55;;;18.02;;
21639;SDS011;10981;45.462;10.974;2023-03-19T04:41:39;33.75;;;18.80;;
21639;SDS011;10981;45.462;10.974;2023-03-19T04:44:23;38.00;;;20.98;;
21639;SDS011;10981;45.462;10.974;2023-03-19T04:46:52;37.05;;;22.30;;
21639;SDS011;10981;45.462;10.974;2023-03-19T04:49:21;41.28;;;23.75;;
21639;SDS011;10981;45.462;10.974;2023-03-19T04:51:51;47.92;;;26.00;;
21639;SDS011;10981;45.462;10.974;2023-03-19T04:54:19;51.15;;;25.42;;
21639;SDS011;10981;45.462;10.974;2023-03-19T04:56:48;46.78;;;25.15;;
21639;SDS011;10981;45.462;10.974;2023-03-19T04:59:17;44.50;;;25.70;;
21639;SDS011;10981;45.462;10.974;2023-03-19T05:01:49;42.58;;;25.35;;
21639;SDS011;10981;45.462;10.974;2023-03-19T05:04:21;44.55;;;25.85;;
21639;SDS011;10981;45.462;10.974;2023-03-19T05:06:52;46.40;;;26.77;;
21639;SDS011;10981;45.462;10.974;2023-03-19T05:09:20;54.70;;;28.10;;
21639;SDS011;10981;45.462;10.974;2023-03-19T05:11:49;53.28;;;28.65;;
21639;SDS011;10981;45.462;10.974;2023-03-19T05:14:20;50.25;;;27.50;;
21639;SDS011;10981;45.462;10.974;2023-03-19T05:17:02;46.95;;;27.40;;
21639;SDS011;10981;45.462;10.974;2023-03-19T05:22:15;47.92;;;26.90;;
21639;SDS011;10981;45.462;10.974;2023-03-19T05:24:46;47.63;;;27.15;;
21639;SDS011;10981;45.462;10.974;2023-03-19T05:27:14;49.22;;;27.65;;
21639;SDS011;10981;45.462;10.974;2023-03-19T05:30:08;50.50;;;28.55;;
21639;SDS011;10981;45.462;10.974;2023-03-19T05:32:50;49.00;;;27.35;;
21639;SDS011;10981;45.462;10.974;2023-03-19T05:35:29;49.40;;;27.55;;
21639;SDS011;10981;45.462;10.974;2023-03-19T05:37:59;47.22;;;26.38;;
21639;SDS011;10981;45.462;10.974;2023-03-19T05:40:28;49.08;;;27.33;;
21639;SDS011;10981;45.462;10.974;2023-03-19T05:42:59;45.17;;;24.60;;
21639;SDS011;10981;45.462;10.974;2023-03-19T05:45:29;40.85;;;23.73;;
21639;SDS011;10981;45.462;10.974;2023-03-19T05:48:04;42.72;;;24.10;;
21639;SDS011;10981;45.462;10.974;2023-03-19T05:50:38;47.08;;;25.30;;
21639;SDS011;10981;45.462;10.974;2023-03-19T05:53:18;44.85;;;23.58;;
21639;SDS011;10981;45.462;10.974;2023-03-19T05:56:03;42.22;;;22.73;;
21639;SDS011;10981;45.462;10.974;2023-03-19T05:58:40;40.35;;;22.52;;
21639;SDS011;10981;45.462;10.974;2023-03-19T06:01:08;36.60;;;21.88;;
21639;SDS011;10981;45.462;10.974;2023-03-19T06:03:37;40.53;;;22.00;;
21639;SDS011;10981;45.462;10.974;2023-03-19T06:06:07;37.70;;;22.75;;
21639;SDS011;10981;45.462;10.974;2023-03-19T06:11:11;36.13;;;20.88;;
21639;SDS011;10981;45.462;10.974;2023-03-19T06:13:47;41.35;;;21.10;;
21639;SDS011;10981;45.462;10.974;2023-03-19T06:16:17;39.10;;;22.30;;
21639;SDS011;10981;45.462;10.974;2023-03-19T06:18:52;35.22;;;21.80;;
21639;SDS011;10981;45.462;10.974;2023-03-19T06:21:22;40.08;;;22.50;;
21639;SDS011;10981;45.462;10.974;2023-03-19T06:23:57;41.00;;;25.40;;
21639;SDS011;10981;45.462;10.974;2023-03-19T06:26:33;38.35;;;22.48;;
21639;SDS011;10981;45.462;10.974;2023-03-19T06:29:07;44.15;;;23.48;;
21639;SDS011;10981;45.462;10.974;2023-03-19T06:31:37;40.10;;;22.48;;
21639;SDS011;10981;45.462;10.974;2023-03-19T06:34:26;39.15;;;23.67;;
21639;SDS011;10981;45.462;10.974;2023-03-19T06:36:56;40.88;;;22.58;;
21639;SDS011;10981;45.462;10.974;2023-03-19T06:39:24;46.67;;;24.25;;
21639;SDS011;10981;45.462;10.974;2023-03-19T06:41:55;40.22;;;24.00;;
21639;SDS011;10981;45.462;10.974;2023-03-19T06:44:26;42.22;;;22.67;;
21639;SDS011;10981;45.462;10.974;2023-03-19T06:46:54;41.13;;;23.25;;
21639;SDS011;10981;45.462;10.974;2023-03-19T06:49:22;36.60;;;23.60;;
21639;SDS011;10981;45.462;10.974;2023-03-19T06:51:51;40.17;;;23.90;;
21639;SDS011;10981;45.462;10.974;2023-03-19T06:54:19;42.72;;;24.23;;
21639;SDS011;10981;45.462;10.974;2023-03-19T06:56:47;42.60;;;25.17;;
21639;SDS011;10981;45.462;10.974;2023-03-19T06:59:16;35.88;;;21.67;;
21639;SDS011;10981;45.462;10.974;2023-03-19T07:01:45;41.25;;;24.10;;
21639;SDS011;10981;45.462;10.974;2023-03-19T07:04:13;34.65;;;21.17;;
21639;SDS011;10981;45.462;10.974;2023-03-19T07:06:41;42.30;;;22.95;;
21639;SDS011;10981;45.462;10.974;2023-03-19T07:09:09;43.45;;;23.92;;
21639;SDS011;10981;45.462;10.974;2023-03-19T07:11:37;35.80;;;22.77;;
21639;SDS011;10981;45.462;10.974;2023-03-19T07:14:06;39.17;;;23.23;;
21639;SDS011;10981;45.462;10.974;2023-03-19T07:16:34;44.72;;;22.77;;
21639;SDS011;10981;45.462;10.974;2023-03-19T07:19:02;37.95;;;23.20;;
21639;SDS011;10981;45.462;10.974;2023-03-19T07:21:32;39.05;;;23.95;;
21639;SDS011;10981;45.462;10.974;2023-03-19T07:24:00;39.30;;;23.48;;
21639;SDS011;10981;45.462;10.974;2023-03-19T07:26:28;41.10;;;24.10;;
21639;SDS011;10981;45.462;10.974;2023-03-19T07:28:57;40.33;;;24.65;;
21639;SDS011;10981;45.462;10.974;2023-03-19T07:31:25;39.75;;;24.67;;
21639;SDS011;10981;45.462;10.974;2023-03-19T07:33:53;43.55;;;24.38;;
21639;SDS011;10981;45.462;10.974;2023-03-19T07:36:22;42.22;;;24.73;;
21639;SDS011;10981;45.462;10.974;2023-03-19T07:38:50;37.67;;;23.23;;
21639;SDS011;10981;45.462;10.974;2023-03-19T07:41:18;37.60;;;24.00;;
21639;SDS011;10981;45.462;10.974;2023-03-19T07:43:47;34.17;;;22.27;;
21639;SDS011;10981;45.462;10.974;2023-03-19T07:46:16;34.78;;;23.08;;
21639;SDS011;10981;45.462;10.974;2023-03-19T07:48:44;35.17;;;22.67;;
21639;SDS011;10981;45.462;10.974;2023-03-19T07:51:13;35.08;;;21.85;;
21639;SDS011;10981;45.462;10.974;2023-03-19T07:53:41;33.03;;;21.95;;
21639;SDS011;10981;45.462;10.974;2023-03-19T07:56:09;32.88;;;21.73;;
21639;SDS011;10981;45.462;10.974;2023-03-19T07:58:39;34.00;;;20.65;;
21639;SDS011;10981;45.462;10.974;2023-03-19T08:01:07;29.42;;;18.63;;
21639;SDS011;10981;45.462;10.974;2023-03-19T08:03:35;24.13;;;15.55;;
21639;SDS011;10981;45.462;10.974;2023-03-19T08:06:04;24.55;;;14.98;;
21639;SDS011;10981;45.462;10.974;2023-03-19T08:08:32;22.92;;;16.50;;
21639;SDS011;10981;45.462;10.974;2023-03-19T08:11:01;25.08;;;15.00;;
21639;SDS011;10981;45.462;10.974;2023-03-19T08:13:29;20.40;;;14.77;;
21639;SDS011;10981;45.462;10.974;2023-03-19T08:15:57;22.40;;;16.77;;
21639;SDS011;10981;45.462;10.974;2023-03-19T08:18:26;23.85;;;15.88;;
21639;SDS011;10981;45.462;10.974;2023-03-19T08:20:54;24.05;;;16.83;;
21639;SDS011;10981;45.462;10.974;2023-03-19T08:23:22;32.08;;;17.98;;
21639;SDS011;10981;45.462;10.974;2023-03-19T08:25:50;24.85;;;17.42;;
21639;SDS011;10981;45.462;10.974;2023-03-19T08:28:19;29.25;;;16.65;;
21639;SDS011;10981;45.462;10.974;2023-03-19T08:30:47;24.55;;;15.95;;
21639;SDS011;10981;45.462;10.974;2023-03-19T08:33:16;22.67;;;14.77;;
21639;SDS011;10981;45.462;10.974;2023-03-19T08:35:44;20.35;;;14.38;;
21639;SDS011;10981;45.462;10.974;2023-03-19T08:38:12;21.02;;;13.80;;
21639;SDS011;10981;45.462;10.974;2023-03-19T08:40:40;20.95;;;14.43;;
21639;SDS011;10981;45.462;10.974;2023-03-19T08:43:08;24.25;;;15.35;;
21639;SDS011;10981;45.462;10.974;2023-03-19T08:45:37;25.83;;;15.25;;
21639;SDS011;10981;45.462;10.974;2023-03-19T08:48:05;26.05;;;16.33;;
21639;SDS011;10981;45.462;10.974;2023-03-19T08:50:33;20.30;;;14.43;;
21639;SDS011;10981;45.462;10.974;2023-03-19T08:53:02;20.90;;;12.48;;
21639;SDS011;10981;45.462;10.974;2023-03-19T08:55:30;19.98;;;12.63;;
21639;SDS011;10981;45.462;10.974;2023-03-19T08:57:58;18.77;;;13.45;;
21639;SDS011;10981;45.462;10.974;2023-03-19T09:00:26;20.92;;;12.88;;
21639;SDS011;10981;45.462;10.974;2023-03-19T09:02:55;19.90;;;13.38;;
21639;SDS011;10981;45.462;10.974;2023-03-19T09:05:23;18.58;;;13.10;;
21639;SDS011;10981;45.462;10.974;2023-03-19T09:07:53;20.70;;;12.77;;
21639;SDS011;10981;45.462;10.974;2023-03-19T09:10:21;17.05;;;11.20;;
21639;SDS011;10981;45.462;10.974;2023-03-19T09:12:49;18.65;;;12.73;;
21639;SDS011;10981;45.462;10.974;2023-03-19T09:15:17;18.15;;;12.65;;
21639;SDS011;10981;45.462;10.974;2023-03-19T09:17:45;21.85;;;13.18;;
21639;SDS011;10981;45.462;10.974;2023-03-19T09:20:14;23.40;;;12.85;;
21639;SDS011;10981;45.462;10.974;2023-03-19T09:22:42;20.25;;;12.32;;
21639;SDS011;10981;45.462;10.974;2023-03-19T09:25:11;16.98;;;11.38;;
21639;SDS011;10981;45.462;10.974;2023-03-19T09:27:39;20.77;;;12.13;;
21639;SDS011;10981;45.462;10.974;2023-03-19T09:30:07;20.65;;;13.02;;
21639;SDS011;10981;45.462;10.974;2023-03-19T09:32:36;20.30;;;11.82;;
21639;SDS011;10981;45.462;10.974;2023-03-19T09:35:05;23.38;;;12.93;;
21639;SDS011;10981;45.462;10.974;2023-03-19T09:37:33;25.92;;;13.45;;
21639;SDS011;10981;45.462;10.974;2023-03-19T09:40:01;27.40;;;14.38;;
21639;SDS011;10981;45.462;10.974;2023-03-19T09:42:48;28.33;;;14.95;;
21639;SDS011;10981;45.462;10.974;2023-03-19T09:45:26;29.67;;;14.52;;
21639;SDS011;10981;45.462;10.974;2023-03-19T09:47:59;26.73;;;14.55;;
21639;SDS011;10981;45.462;10.974;2023-03-19T09:50:34;24.67;;;13.88;;
21639;SDS011;10981;45.462;10.974;2023-03-19T09:53:11;23.98;;;12.55;;
21639;SDS011;10981;45.462;10.974;2023-03-19T09:56:04;22.25;;;13.00;;
21639;SDS011;10981;45.462;10.974;2023-03-19T09:58:39;22.10;;;13.70;;
21639;SDS011;10981;45.462;10.974;2023-03-19T10:01:26;22.23;;;13.48;;
21639;SDS011;10981;45.462;10.974;2023-03-19T10:07:21;27.27;;;14.13;;
21639;SDS011;10981;45.462;10.974;2023-03-19T10:15:28;30.27;;;14.18;;
21639;SDS011;10981;45.462;10.974;2023-03-19T10:18:02;30.10;;;15.77;;
21639;SDS011;10981;45.462;10.974;2023-03-19T10:20:57;25.67;;;15.48;;
21639;SDS011;10981;45.462;10.974;2023-03-19T10:23:49;26.13;;;14.63;;
21639;SDS011;10981;45.462;10.974;2023-03-19T10:29:03;25.08;;;15.48;;
21639;SDS011;10981;45.462;10.974;2023-03-19T10:32:18;24.15;;;15.68;;
21639;SDS011;10981;45.462;10.974;2023-03-19T10:34:57;32.35;;;17.88;;
21639;SDS011;10981;45.462;10.974;2023-03-19T10:37:33;34.53;;;18.02;;
21639;SDS011;10981;45.462;10.974;2023-03-19T10:40:02;26.77;;;16.65;;
21639;SDS011;10981;45.462;10.974;2023-03-19T10:43:28;30.40;;;15.10;;
21639;SDS011;10981;45.462;10.974;2023-03-19T10:45:34;32.20;;;15.43;;
21639;SDS011;10981;45.462;10.974;2023-03-19T10:48:05;25.90;;;16.27;;
21639;SDS011;10981;45.462;10.974;2023-03-19T10:55:46;27.55;;;16.95;;
21639;SDS011;10981;45.462;10.974;2023-03-19T10:58:24;29.05;;;16.63;;
21639;SDS011;10981;45.462;10.974;2023-03-19T11:01:12;24.27;;;15.73;;
21639;SDS011;10981;45.462;10.974;2023-03-19T11:03:49;23.50;;;14.75;;
21639;SDS011;10981;45.462;10.974;2023-03-19T11:08:55;23.15;;;14.57;;
21639;SDS011;10981;45.462;10.974;2023-03-19T11:11:26;21.55;;;13.57;;
21639;SDS011;10981;45.462;10.974;2023-03-19T11:14:20;23.20;;;15.02;;
21639;SDS011;10981;45.462;10.974;2023-03-19T11:16:57;23.08;;;14.63;;
21639;SDS011;10981;45.462;10.974;2023-03-19T11:19:38;27.88;;;15.02;;
21639;SDS011;10981;45.462;10.974;2023-03-19T11:25:13;27.83;;;15.68;;
21639;SDS011;10981;45.462;10.974;2023-03-19T11:28:02;24.60;;;14.40;;
21639;SDS011;10981;45.462;10.974;2023-03-19T11:33:24;20.13;;;13.27;;
21639;SDS011;10981;45.462;10.974;2023-03-19T11:36:12;25.17;;;14.38;;
21639;SDS011;10981;45.462;10.974;2023-03-19T11:38:48;23.35;;;14.43;;
21639;SDS011;10981;45.462;10.974;2023-03-19T11:41:38;21.58;;;13.32;;
21639;SDS011;10981;45.462;10.974;2023-03-19T11:44:28;22.48;;;13.98;;
21639;SDS011;10981;45.462;10.974;2023-03-19T11:47:10;20.88;;;13.95;;
21639;SDS011;10981;45.462;10.974;2023-03-19T12:07:22;22.92;;;14.73;;
21639;SDS011;10981;45.462;10.974;2023-03-19T12:15:48;28.70;;;16.00;;
21639;SDS011;10981;45.462;10.974;2023-03-19T12:32:29;27.33;;;16.20;;
21639;SDS011;10981;45.462;10.974;2023-03-19T12:34:55;24.98;;;16.80;;
21639;SDS011;10981;45.462;10.974;2023-03-19T12:40:52;27.88;;;17.30;;
21639;SDS011;10981;45.462;10.974;2023-03-19T12:43:34;28.80;;;17.95;;
21639;SDS011;10981;45.462;10.974;2023-03-19T12:46:17;26.05;;;16.60;;
21639;SDS011;10981;45.462;10.974;2023-03-19T12:48:56;29.77;;;18.13;;
21639;SDS011;10981;45.462;10.974;2023-03-19T12:51:34;25.40;;;16.88;;
21639;SDS011;10981;45.462;10.974;2023-03-19T12:54:17;29.67;;;17.90;;
21639;SDS011;10981;45.462;10.974;2023-03-19T12:56:51;28.88;;;17.35;;
21639;SDS011;10981;45.462;10.974;2023-03-19T13:04:39;32.38;;;18.42;;
21639;SDS011;10981;45.462;10.974;2023-03-19T13:07:30;28.52;;;17.92;;
21639;SDS011;10981;45.462;10.974;2023-03-19T13:10:05;25.15;;;16.70;;
21639;SDS011;10981;45.462;10.974;2023-03-19T13:12:39;29.70;;;17.00;;
21639;SDS011;10981;45.462;10.974;2023-03-19T13:15:55;32.20;;;17.35;;
21639;SDS011;10981;45.462;10.974;2023-03-19T13:23:36;25.27;;;17.25;;
21639;SDS011;10981;45.462;10.974;2023-03-19T13:26:08;27.90;;;19.15;;
21639;SDS011;10981;45.462;10.974;2023-03-19T13:28:58;31.70;;;18.48;;
21639;SDS011;10981;45.462;10.974;2023-03-19T13:31:32;31.13;;;18.17;;
21639;SDS011;10981;45.462;10.974;2023-03-19T13:34:03;33.08;;;19.42;;
21639;SDS011;10981;45.462;10.974;2023-03-19T13:36:37;30.48;;;18.15;;
21639;SDS011;10981;45.462;10.974;2023-03-19T13:39:13;28.80;;;18.30;;
21639;SDS011;10981;45.462;10.974;2023-03-19T13:46:59;32.42;;;19.13;;
21639;SDS011;10981;45.462;10.974;2023-03-19T13:49:31;34.30;;;20.85;;
21639;SDS011;10981;45.462;10.974;2023-03-19T13:52:10;31.90;;;20.38;;
21639;SDS011;10981;45.462;10.974;2023-03-19T13:54:53;34.22;;;20.17;;
21639;SDS011;10981;45.462;10.974;2023-03-19T13:57:32;42.90;;;22.83;;
21639;SDS011;10981;45.462;10.974;2023-03-19T14:03:40;31.70;;;20.85;;
21639;SDS011;10981;45.462;10.974;2023-03-19T14:09:28;32.58;;;19.85;;
21639;SDS011;10981;45.462;10.974;2023-03-19T14:12:10;32.83;;;21.98;;
21639;SDS011;10981;45.462;10.974;2023-03-19T14:14:39;30.88;;;20.42;;
21639;SDS011;10981;45.462;10.974;2023-03-19T14:17:53;34.33;;;21.50;;
21639;SDS011;10981;45.462;10.974;2023-03-19T14:20:03;31.65;;;21.00;;
21639;SDS011;10981;45.462;10.974;2023-03-19T14:28:37;36.65;;;23.70;;
21639;SDS011;10981;45.462;10.974;2023-03-19T14:31:25;36.85;;;23.95;;
21639;SDS011;10981;45.462;10.974;2023-03-19T14:39:58;36.28;;;22.17;;
21639;SDS011;10981;45.462;10.974;2023-03-19T14:51:29;37.85;;;23.48;;
21639;SDS011;10981;45.462;10.974;2023-03-19T14:54:27;44.90;;;22.27;;
21639;SDS011;10981;45.462;10.974;2023-03-19T14:57:16;37.35;;;21.48;;
21639;SDS011;10981;45.462;10.974;2023-03-19T14:59:47;36.03;;;22.88;;
21639;SDS011;10981;45.462;10.974;2023-03-19T15:02:18;31.75;;;21.60;;
21639;SDS011;10981;45.462;10.974;2023-03-19T15:04:53;39.42;;;22.42;;
21639;SDS011;10981;45.462;10.974;2023-03-19T15:09:58;34.65;;;21.65;;
21639;SDS011;10981;45.462;10.974;2023-03-19T15:18:11;33.28;;;21.67;;
21639;SDS011;10981;45.462;10.974;2023-03-19T15:20:42;37.88;;;24.67;;
21639;SDS011;10981;45.462;10.974;2023-03-19T15:23:17;37.95;;;22.48;;
21639;SDS011;10981;45.462;10.974;2023-03-19T15:28:31;39.08;;;23.65;;
21639;SDS011;10981;45.462;10.974;2023-03-19T15:31:11;36.80;;;23.70;;
21639;SDS011;10981;45.462;10.974;2023-03-19T15:34:00;35.78;;;22.35;;
21639;SDS011;10981;45.462;10.974;2023-03-19T15:36:30;35.88;;;22.80;;
21639;SDS011;10981;45.462;10.974;2023-03-19T15:39:01;38.05;;;23.13;;
21639;SDS011;10981;45.462;10.974;2023-03-19T15:41:37;31.85;;;21.98;;
21639;SDS011;10981;45.462;10.974;2023-03-19T15:44:13;32.72;;;21.13;;
21639;SDS011;10981;45.462;10.974;2023-03-19T15:46:47;36.08;;;21.95;;
21639;SDS011;10981;45.462;10.974;2023-03-19T15:49:21;35.28;;;23.00;;
21639;SDS011;10981;45.462;10.974;2023-03-19T15:51:55;33.78;;;22.00;;
21639;SDS011;10981;45.462;10.974;2023-03-19T15:54:27;31.67;;;20.42;;
21639;SDS011;10981;45.462;10.974;2023-03-19T15:56:56;30.67;;;19.67;;
21639;SDS011;10981;45.462;10.974;2023-03-19T15:59:25;29.63;;;20.05;;
21639;SDS011;10981;45.462;10.974;2023-03-19T16:01:59;28.48;;;19.00;;
21639;SDS011;10981;45.462;10.974;2023-03-19T16:04:29;31.55;;;19.92;;
21639;SDS011;10981;45.462;10.974;2023-03-19T16:07:24;30.77;;;19.10;;
21639;SDS011;10981;45.462;10.974;2023-03-19T16:12:54;29.73;;;19.77;;
21639;SDS011;10981;45.462;10.974;2023-03-19T16:20:44;35.38;;;19.90;;
21639;SDS011;10981;45.462;10.974;2023-03-19T16:23:27;30.98;;;20.17;;
21639;SDS011;10981;45.462;10.974;2023-03-19T16:26:11;27.77;;;19.60;;
21639;SDS011;10981;45.462;10.974;2023-03-19T16:32:00;28.50;;;19.08;;
21639;SDS011;10981;45.462;10.974;2023-03-19T16:34:38;38.17;;;20.40;;
21639;SDS011;10981;45.462;10.974;2023-03-19T16:37:23;29.77;;;19.30;;
21639;SDS011;10981;45.462;10.974;2023-03-19T16:39:54;32.72;;;20.77;;
21639;SDS011;10981;45.462;10.974;2023-03-19T16:42:26;27.63;;;19.23;;
21639;SDS011;10981;45.462;10.974;2023-03-19T16:45:01;33.92;;;18.92;;
21639;SDS011;10981;45.462;10.974;2023-03-19T16:50:16;28.33;;;17.87;;
21639;SDS011;10981;45.462;10.974;2023-03-19T16:52:47;31.08;;;19.40;;
21639;SDS011;10981;45.462;10.974;2023-03-19T16:55:25;28.70;;;18.63;;
21639;SDS011;10981;45.462;10.974;2023-03-19T16:58:17;28.48;;;17.73;;
21639;SDS011;10981;45.462;10.974;2023-03-19T17:00:46;25.27;;;17.15;;
21639;SDS011;10981;45.462;10.974;2023-03-19T17:03:15;25.13;;;17.38;;